sensor_id;sensor_type;location;lat;lon;timestamp;P1;durP1;ratioP1;P2;durP2;ratioP2
14770;SDS011;7477;45.222;5.688;2024-01-11T00:01:53;26.43;;;14.70;;
14770;SDS011;7477;45.222;5.688;2024-01-11T00:05:12;23.13;;;13.37;;
14770;SDS011;7477;45.222;5.688;2024-01-11T00:08:32;22.33;;;12.75;;
14770;SDS011;7477;45.222;5.688;2024-01-11T00:11:52;24.65;;;14.10;;
14770;SDS011;7477;45.222;5.688;2024-01-11T00:15:11;23.40;;;13.23;;
14770;SDS011;7477;45.222;5.688;2024-01-11T00:18:31;24.27;;;13.27;;
14770;SDS011;7477;45.222;5.688;2024-01-11T00:21:50;22.63;;;12.03;;
14770;SDS011;7477;45.222;5.688;2024-01-11T00:25:10;23.03;;;12.77;;
14770;SDS011;7477;45.222;5.688;2024-01-11T00:28:29;21.55;;;13.35;;
14770;SDS011;7477;45.222;5.688;2024-01-11T00:31:48;25.80;;;14.32;;
14770;SDS011;7477;45.222;5.688;2024-01-11T00:35:08;22.43;;;12.63;;
14770;SDS011;7477;45.222;5.688;2024-01-11T00:38:27;23.88;;;13.13;;
14770;SDS011;7477;45.222;5.688;2024-01-11T00:41:46;24.17;;;13.27;;
14770;SDS011;7477;45.222;5.688;2024-01-11T00:45:05;23.20;;;12.50;;
14770;SDS011;7477;45.222;5.688;2024-01-11T00:48:24;27.95;;;14.48;;
14770;SDS011;7477;45.222;5.688;2024-01-11T00:51:44;26.00;;;12.87;;
14770;SDS011;7477;45.222;5.688;2024-01-11T00:55:03;24.88;;;13.40;;
14770;SDS011;7477;45.222;5.688;2024-01-11T00:58:23;24.43;;;14.50;;
14770;SDS011;7477;45.222;5.688;2024-01-11T01:01:48;23.77;;;14.17;;
14770;SDS011;7477;45.222;5.688;2024-01-11T01:05:08;26.02;;;14.23;;
14770;SDS011;7477;45.222;5.688;2024-01-11T01:08:27;26.20;;;14.27;;
14770;SDS011;7477;45.222;5.688;2024-01-11T01:11:46;27.33;;;15.30;;
14770;SDS011;7477;45.222;5.688;2024-01-11T01:15:06;25.87;;;14.20;;
14770;SDS011;7477;45.222;5.688;2024-01-11T01:18:25;30.00;;;15.00;;
14770;SDS011;7477;45.222;5.688;2024-01-11T01:21:44;24.30;;;12.67;;
14770;SDS011;7477;45.222;5.688;2024-01-11T01:25:04;24.47;;;14.00;;
14770;SDS011;7477;45.222;5.688;2024-01-11T01:28:23;25.17;;;13.23;;
14770;SDS011;7477;45.222;5.688;2024-01-11T01:31:42;27.57;;;14.80;;
14770;SDS011;7477;45.222;5.688;2024-01-11T01:35:02;27.73;;;14.65;;
14770;SDS011;7477;45.222;5.688;2024-01-11T01:38:22;31.07;;;15.00;;
14770;SDS011;7477;45.222;5.688;2024-01-11T01:41:42;24.63;;;13.00;;
14770;SDS011;7477;45.222;5.688;2024-01-11T01:45:01;29.20;;;14.37;;
14770;SDS011;7477;45.222;5.688;2024-01-11T01:48:20;26.03;;;12.67;;
14770;SDS011;7477;45.222;5.688;2024-01-11T01:51:40;25.30;;;13.67;;
14770;SDS011;7477;45.222;5.688;2024-01-11T01:55:01;29.30;;;15.20;;
14770;SDS011;7477;45.222;5.688;2024-01-11T01:58:23;29.77;;;15.43;;
14770;SDS011;7477;45.222;5.688;2024-01-11T02:01:42;24.97;;;14.53;;
14770;SDS011;7477;45.222;5.688;2024-01-11T02:05:02;27.23;;;14.30;;
14770;SDS011;7477;45.222;5.688;2024-01-11T02:08:22;28.13;;;15.33;;
14770;SDS011;7477;45.222;5.688;2024-01-11T02:11:44;24.87;;;13.67;;
14770;SDS011;7477;45.222;5.688;2024-01-11T02:15:04;29.02;;;14.45;;
14770;SDS011;7477;45.222;5.688;2024-01-11T02:18:24;23.60;;;13.63;;
14770;SDS011;7477;45.222;5.688;2024-01-11T02:21:43;26.20;;;13.20;;
14770;SDS011;7477;45.222;5.688;2024-01-11T02:25:04;26.20;;;13.53;;
14770;SDS011;7477;45.222;5.688;2024-01-11T02:28:24;25.43;;;15.00;;
14770;SDS011;7477;45.222;5.688;2024-01-11T02:31:43;26.90;;;12.90;;
14770;SDS011;7477;45.222;5.688;2024-01-11T02:35:02;23.35;;;13.05;;
14770;SDS011;7477;45.222;5.688;2024-01-11T02:38:22;25.93;;;13.87;;
14770;SDS011;7477;45.222;5.688;2024-01-11T02:41:43;25.30;;;13.17;;
14770;SDS011;7477;45.222;5.688;2024-01-11T02:45:03;25.40;;;13.90;;
14770;SDS011;7477;45.222;5.688;2024-01-11T02:48:22;29.53;;;15.57;;
14770;SDS011;7477;45.222;5.688;2024-01-11T02:51:49;25.42;;;13.95;;
14770;SDS011;7477;45.222;5.688;2024-01-11T02:55:08;25.07;;;13.20;;
14770;SDS011;7477;45.222;5.688;2024-01-11T02:58:27;23.55;;;12.68;;
14770;SDS011;7477;45.222;5.688;2024-01-11T03:01:47;22.88;;;12.48;;
14770;SDS011;7477;45.222;5.688;2024-01-11T03:05:06;27.23;;;14.07;;
14770;SDS011;7477;45.222;5.688;2024-01-11T03:08:26;23.85;;;13.98;;
14770;SDS011;7477;45.222;5.688;2024-01-11T03:11:45;26.83;;;14.50;;
14770;SDS011;7477;45.222;5.688;2024-01-11T03:15:04;25.40;;;13.50;;
14770;SDS011;7477;45.222;5.688;2024-01-11T03:18:24;24.07;;;12.80;;
14770;SDS011;7477;45.222;5.688;2024-01-11T03:21:43;23.27;;;12.37;;
14770;SDS011;7477;45.222;5.688;2024-01-11T03:25:02;24.47;;;13.27;;
14770;SDS011;7477;45.222;5.688;2024-01-11T03:28:22;24.00;;;13.07;;
14770;SDS011;7477;45.222;5.688;2024-01-11T03:31:41;23.23;;;13.73;;
14770;SDS011;7477;45.222;5.688;2024-01-11T03:35:03;24.33;;;14.07;;
14770;SDS011;7477;45.222;5.688;2024-01-11T03:38:22;27.57;;;15.00;;
14770;SDS011;7477;45.222;5.688;2024-01-11T03:41:45;26.50;;;14.07;;
14770;SDS011;7477;45.222;5.688;2024-01-11T03:45:04;28.17;;;16.23;;
14770;SDS011;7477;45.222;5.688;2024-01-11T03:48:24;27.27;;;14.67;;
14770;SDS011;7477;45.222;5.688;2024-01-11T03:51:43;26.77;;;13.43;;
14770;SDS011;7477;45.222;5.688;2024-01-11T03:55:02;24.77;;;14.23;;
14770;SDS011;7477;45.222;5.688;2024-01-11T03:58:22;25.47;;;13.43;;
14770;SDS011;7477;45.222;5.688;2024-01-11T04:01:42;26.03;;;13.47;;
14770;SDS011;7477;45.222;5.688;2024-01-11T04:05:01;27.40;;;13.73;;
14770;SDS011;7477;45.222;5.688;2024-01-11T04:08:21;23.50;;;12.80;;
14770;SDS011;7477;45.222;5.688;2024-01-11T04:11:40;24.53;;;12.93;;
14770;SDS011;7477;45.222;5.688;2024-01-11T04:14:59;26.40;;;14.53;;
14770;SDS011;7477;45.222;5.688;2024-01-11T04:18:18;29.70;;;15.53;;
14770;SDS011;7477;45.222;5.688;2024-01-11T04:21:37;24.45;;;13.50;;
14770;SDS011;7477;45.222;5.688;2024-01-11T04:24:59;27.37;;;14.60;;
14770;SDS011;7477;45.222;5.688;2024-01-11T04:28:19;24.10;;;14.13;;
14770;SDS011;7477;45.222;5.688;2024-01-11T04:31:38;25.23;;;13.53;;
14770;SDS011;7477;45.222;5.688;2024-01-11T04:34:57;22.53;;;13.43;;
14770;SDS011;7477;45.222;5.688;2024-01-11T04:38:16;25.83;;;14.57;;
14770;SDS011;7477;45.222;5.688;2024-01-11T04:41:35;25.63;;;13.60;;
14770;SDS011;7477;45.222;5.688;2024-01-11T04:44:58;25.07;;;12.97;;
14770;SDS011;7477;45.222;5.688;2024-01-11T04:48:17;26.63;;;13.97;;
14770;SDS011;7477;45.222;5.688;2024-01-11T04:51:36;25.23;;;13.63;;
14770;SDS011;7477;45.222;5.688;2024-01-11T04:54:55;30.87;;;14.47;;
14770;SDS011;7477;45.222;5.688;2024-01-11T04:58:15;26.60;;;14.07;;
14770;SDS011;7477;45.222;5.688;2024-01-11T05:01:34;24.07;;;12.63;;
14770;SDS011;7477;45.222;5.688;2024-01-11T05:04:54;24.23;;;12.87;;
14770;SDS011;7477;45.222;5.688;2024-01-11T05:08:13;25.57;;;12.90;;
14770;SDS011;7477;45.222;5.688;2024-01-11T05:11:32;28.67;;;14.30;;
14770;SDS011;7477;45.222;5.688;2024-01-11T05:14:52;23.63;;;11.67;;
14770;SDS011;7477;45.222;5.688;2024-01-11T05:18:11;25.50;;;12.83;;
14770;SDS011;7477;45.222;5.688;2024-01-11T05:21:31;26.43;;;12.43;;
14770;SDS011;7477;45.222;5.688;2024-01-11T05:24:50;28.57;;;14.03;;
14770;SDS011;7477;45.222;5.688;2024-01-11T05:28:09;29.30;;;12.40;;
14770;SDS011;7477;45.222;5.688;2024-01-11T05:31:29;22.57;;;12.10;;
14770;SDS011;7477;45.222;5.688;2024-01-11T05:34:48;23.67;;;13.10;;
14770;SDS011;7477;45.222;5.688;2024-01-11T05:38:07;23.67;;;12.03;;
14770;SDS011;7477;45.222;5.688;2024-01-11T05:41:26;21.80;;;12.47;;
14770;SDS011;7477;45.222;5.688;2024-01-11T05:44:45;24.53;;;12.90;;
14770;SDS011;7477;45.222;5.688;2024-01-11T05:48:05;24.23;;;11.03;;
14770;SDS011;7477;45.222;5.688;2024-01-11T05:51:24;20.50;;;10.67;;
14770;SDS011;7477;45.222;5.688;2024-01-11T05:54:43;24.90;;;13.00;;
14770;SDS011;7477;45.222;5.688;2024-01-11T05:58:03;22.63;;;12.73;;
14770;SDS011;7477;45.222;5.688;2024-01-11T06:01:23;23.33;;;12.13;;
14770;SDS011;7477;45.222;5.688;2024-01-11T06:04:42;24.57;;;12.03;;
14770;SDS011;7477;45.222;5.688;2024-01-11T06:08:02;26.77;;;13.43;;
14770;SDS011;7477;45.222;5.688;2024-01-11T06:11:22;23.60;;;12.33;;
14770;SDS011;7477;45.222;5.688;2024-01-11T06:14:41;24.07;;;11.90;;
14770;SDS011;7477;45.222;5.688;2024-01-11T06:18:00;20.37;;;11.43;;
14770;SDS011;7477;45.222;5.688;2024-01-11T06:21:19;21.83;;;11.90;;
14770;SDS011;7477;45.222;5.688;2024-01-11T06:24:38;24.27;;;12.40;;
14770;SDS011;7477;45.222;5.688;2024-01-11T06:27:57;24.33;;;12.17;;
14770;SDS011;7477;45.222;5.688;2024-01-11T06:31:17;22.40;;;11.90;;
14770;SDS011;7477;45.222;5.688;2024-01-11T06:34:36;22.37;;;11.60;;
14770;SDS011;7477;45.222;5.688;2024-01-11T06:37:55;23.47;;;12.27;;
14770;SDS011;7477;45.222;5.688;2024-01-11T06:41:14;21.57;;;11.97;;
14770;SDS011;7477;45.222;5.688;2024-01-11T06:44:33;21.57;;;11.53;;
14770;SDS011;7477;45.222;5.688;2024-01-11T06:47:53;19.63;;;10.20;;
14770;SDS011;7477;45.222;5.688;2024-01-11T06:51:16;18.50;;;10.90;;
14770;SDS011;7477;45.222;5.688;2024-01-11T06:54:35;17.57;;;10.73;;
14770;SDS011;7477;45.222;5.688;2024-01-11T06:57:54;21.80;;;11.13;;
14770;SDS011;7477;45.222;5.688;2024-01-11T07:01:14;21.43;;;11.63;;
14770;SDS011;7477;45.222;5.688;2024-01-11T07:04:33;17.77;;;10.40;;
14770;SDS011;7477;45.222;5.688;2024-01-11T07:07:53;19.20;;;10.33;;
14770;SDS011;7477;45.222;5.688;2024-01-11T07:11:12;20.30;;;10.97;;
14770;SDS011;7477;45.222;5.688;2024-01-11T07:14:31;19.07;;;11.13;;
14770;SDS011;7477;45.222;5.688;2024-01-11T07:17:51;18.53;;;9.50;;
14770;SDS011;7477;45.222;5.688;2024-01-11T07:21:12;17.40;;;9.73;;
14770;SDS011;7477;45.222;5.688;2024-01-11T07:24:31;19.80;;;11.40;;
14770;SDS011;7477;45.222;5.688;2024-01-11T07:27:56;16.57;;;10.10;;
14770;SDS011;7477;45.222;5.688;2024-01-11T07:31:15;18.03;;;10.13;;
14770;SDS011;7477;45.222;5.688;2024-01-11T07:34:34;18.07;;;10.10;;
14770;SDS011;7477;45.222;5.688;2024-01-11T07:37:55;18.00;;;10.37;;
14770;SDS011;7477;45.222;5.688;2024-01-11T07:41:15;19.63;;;10.50;;
14770;SDS011;7477;45.222;5.688;2024-01-11T07:44:35;20.27;;;10.73;;
14770;SDS011;7477;45.222;5.688;2024-01-11T07:47:54;21.13;;;11.23;;
14770;SDS011;7477;45.222;5.688;2024-01-11T07:51:13;26.83;;;12.73;;
14770;SDS011;7477;45.222;5.688;2024-01-11T07:54:32;20.97;;;10.97;;
14770;SDS011;7477;45.222;5.688;2024-01-11T07:57:52;19.67;;;10.73;;
14770;SDS011;7477;45.222;5.688;2024-01-11T08:01:11;17.73;;;10.00;;
14770;SDS011;7477;45.222;5.688;2024-01-11T08:04:31;23.07;;;10.77;;
14770;SDS011;7477;45.222;5.688;2024-01-11T08:07:50;16.53;;;9.83;;
14770;SDS011;7477;45.222;5.688;2024-01-11T08:11:10;19.77;;;10.53;;
14770;SDS011;7477;45.222;5.688;2024-01-11T08:14:31;19.93;;;10.37;;
14770;SDS011;7477;45.222;5.688;2024-01-11T08:17:50;23.43;;;12.97;;
14770;SDS011;7477;45.222;5.688;2024-01-11T08:21:09;23.97;;;15.37;;
14770;SDS011;7477;45.222;5.688;2024-01-11T08:24:29;21.67;;;13.53;;
14770;SDS011;7477;45.222;5.688;2024-01-11T08:27:49;22.93;;;12.10;;
14770;SDS011;7477;45.222;5.688;2024-01-11T08:31:08;22.97;;;10.97;;
14770;SDS011;7477;45.222;5.688;2024-01-11T08:34:27;17.73;;;10.27;;
14770;SDS011;7477;45.222;5.688;2024-01-11T08:37:47;23.13;;;11.13;;
14770;SDS011;7477;45.222;5.688;2024-01-11T08:41:06;22.37;;;10.53;;
14770;SDS011;7477;45.222;5.688;2024-01-11T08:44:25;20.87;;;10.70;;
14770;SDS011;7477;45.222;5.688;2024-01-11T08:47:45;20.93;;;10.57;;
14770;SDS011;7477;45.222;5.688;2024-01-11T08:51:05;19.57;;;10.60;;
14770;SDS011;7477;45.222;5.688;2024-01-11T08:54:25;18.17;;;9.37;;
14770;SDS011;7477;45.222;5.688;2024-01-11T08:57:44;18.40;;;9.90;;
14770;SDS011;7477;45.222;5.688;2024-01-11T09:01:03;20.30;;;10.63;;
14770;SDS011;7477;45.222;5.688;2024-01-11T09:04:22;18.47;;;9.80;;
14770;SDS011;7477;45.222;5.688;2024-01-11T09:07:42;20.90;;;10.87;;
14770;SDS011;7477;45.222;5.688;2024-01-11T09:11:01;21.60;;;10.40;;
14770;SDS011;7477;45.222;5.688;2024-01-11T09:14:21;21.92;;;10.55;;
14770;SDS011;7477;45.222;5.688;2024-01-11T09:17:40;19.30;;;9.10;;
14770;SDS011;7477;45.222;5.688;2024-01-11T09:20:59;20.67;;;11.33;;
14770;SDS011;7477;45.222;5.688;2024-01-11T09:24:19;20.83;;;10.10;;
14770;SDS011;7477;45.222;5.688;2024-01-11T09:27:38;17.33;;;10.27;;
14770;SDS011;7477;45.222;5.688;2024-01-11T09:30:58;19.73;;;10.30;;
14770;SDS011;7477;45.222;5.688;2024-01-11T09:34:18;21.00;;;10.50;;
14770;SDS011;7477;45.222;5.688;2024-01-11T09:37:37;20.20;;;9.17;;
14770;SDS011;7477;45.222;5.688;2024-01-11T09:41:05;17.53;;;10.33;;
14770;SDS011;7477;45.222;5.688;2024-01-11T09:44:29;17.57;;;9.37;;
14770;SDS011;7477;45.222;5.688;2024-01-11T09:47:49;18.20;;;9.67;;
14770;SDS011;7477;45.222;5.688;2024-01-11T09:51:10;21.93;;;9.70;;
14770;SDS011;7477;45.222;5.688;2024-01-11T09:54:32;21.33;;;11.30;;
14770;SDS011;7477;45.222;5.688;2024-01-11T09:57:52;18.90;;;9.32;;
14770;SDS011;7477;45.222;5.688;2024-01-11T10:01:16;23.92;;;11.32;;
14770;SDS011;7477;45.222;5.688;2024-01-11T10:04:36;19.25;;;10.02;;
14770;SDS011;7477;45.222;5.688;2024-01-11T10:07:55;20.75;;;10.82;;
14770;SDS011;7477;45.222;5.688;2024-01-11T10:11:15;20.30;;;10.55;;
14770;SDS011;7477;45.222;5.688;2024-01-11T10:14:34;19.10;;;10.18;;
14770;SDS011;7477;45.222;5.688;2024-01-11T10:17:54;21.23;;;10.00;;
14770;SDS011;7477;45.222;5.688;2024-01-11T10:21:13;22.35;;;10.98;;
14770;SDS011;7477;45.222;5.688;2024-01-11T10:24:33;41.92;;;24.13;;
14770;SDS011;7477;45.222;5.688;2024-01-11T10:27:54;22.70;;;13.53;;
14770;SDS011;7477;45.222;5.688;2024-01-11T10:31:13;24.57;;;12.07;;
14770;SDS011;7477;45.222;5.688;2024-01-11T10:34:36;20.97;;;10.33;;
14770;SDS011;7477;45.222;5.688;2024-01-11T10:37:58;22.67;;;10.33;;
14770;SDS011;7477;45.222;5.688;2024-01-11T10:41:20;18.98;;;9.63;;
14770;SDS011;7477;45.222;5.688;2024-01-11T10:44:40;38.23;;;18.67;;
14770;SDS011;7477;45.222;5.688;2024-01-11T10:48:14;28.27;;;15.48;;
14770;SDS011;7477;45.222;5.688;2024-01-11T10:51:34;16.80;;;10.02;;
14770;SDS011;7477;45.222;5.688;2024-01-11T10:54:53;20.77;;;9.43;;
14770;SDS011;7477;45.222;5.688;2024-01-11T10:58:14;19.98;;;9.02;;
14770;SDS011;7477;45.222;5.688;2024-01-11T11:01:35;14.43;;;8.38;;
14770;SDS011;7477;45.222;5.688;2024-01-11T11:04:55;15.13;;;8.80;;
14770;SDS011;7477;45.222;5.688;2024-01-11T11:08:16;16.07;;;9.37;;
14770;SDS011;7477;45.222;5.688;2024-01-11T11:11:36;22.80;;;10.30;;
14770;SDS011;7477;45.222;5.688;2024-01-11T11:14:58;17.30;;;10.17;;
14770;SDS011;7477;45.222;5.688;2024-01-11T11:18:19;18.08;;;10.77;;
14770;SDS011;7477;45.222;5.688;2024-01-11T11:21:42;16.90;;;9.82;;
14770;SDS011;7477;45.222;5.688;2024-01-11T11:25:03;12.98;;;7.40;;
14770;SDS011;7477;45.222;5.688;2024-01-11T11:28:26;14.52;;;7.88;;
14770;SDS011;7477;45.222;5.688;2024-01-11T11:31:46;14.68;;;7.88;;
14770;SDS011;7477;45.222;5.688;2024-01-11T11:35:12;13.80;;;7.45;;
14770;SDS011;7477;45.222;5.688;2024-01-11T11:38:32;15.75;;;8.77;;
14770;SDS011;7477;45.222;5.688;2024-01-11T11:41:51;21.80;;;9.32;;
14770;SDS011;7477;45.222;5.688;2024-01-11T11:45:23;14.63;;;7.20;;
14770;SDS011;7477;45.222;5.688;2024-01-11T11:48:47;13.10;;;8.18;;
14770;SDS011;7477;45.222;5.688;2024-01-11T11:52:14;15.27;;;6.90;;
14770;SDS011;7477;45.222;5.688;2024-01-11T11:55:34;16.27;;;9.55;;
14770;SDS011;7477;45.222;5.688;2024-01-11T11:58:54;13.45;;;6.88;;
14770;SDS011;7477;45.222;5.688;2024-01-11T12:02:15;13.80;;;7.40;;
14770;SDS011;7477;45.222;5.688;2024-01-11T12:05:37;15.60;;;8.07;;
14770;SDS011;7477;45.222;5.688;2024-01-11T12:08:57;18.13;;;8.43;;
14770;SDS011;7477;45.222;5.688;2024-01-11T12:12:16;12.98;;;8.65;;
14770;SDS011;7477;45.222;5.688;2024-01-11T12:15:36;15.70;;;6.60;;
14770;SDS011;7477;45.222;5.688;2024-01-11T12:18:55;13.85;;;7.15;;
14770;SDS011;7477;45.222;5.688;2024-01-11T12:22:15;14.27;;;7.32;;
14770;SDS011;7477;45.222;5.688;2024-01-11T12:25:35;14.18;;;7.97;;
14770;SDS011;7477;45.222;5.688;2024-01-11T12:28:55;17.75;;;8.73;;
14770;SDS011;7477;45.222;5.688;2024-01-11T12:32:14;11.63;;;8.00;;
14770;SDS011;7477;45.222;5.688;2024-01-11T12:35:34;15.30;;;8.18;;
14770;SDS011;7477;45.222;5.688;2024-01-11T12:38:54;15.20;;;7.93;;
14770;SDS011;7477;45.222;5.688;2024-01-11T12:42:13;14.88;;;8.25;;
14770;SDS011;7477;45.222;5.688;2024-01-11T12:45:36;15.23;;;7.22;;
14770;SDS011;7477;45.222;5.688;2024-01-11T12:48:56;12.05;;;7.25;;
14770;SDS011;7477;45.222;5.688;2024-01-11T12:52:16;15.93;;;9.80;;
14770;SDS011;7477;45.222;5.688;2024-01-11T12:55:36;15.23;;;8.48;;
14770;SDS011;7477;45.222;5.688;2024-01-11T12:59:05;13.77;;;8.18;;
14770;SDS011;7477;45.222;5.688;2024-01-11T13:02:25;13.57;;;7.20;;
14770;SDS011;7477;45.222;5.688;2024-01-11T13:05:45;13.60;;;8.52;;
14770;SDS011;7477;45.222;5.688;2024-01-11T13:09:04;15.40;;;8.07;;
14770;SDS011;7477;45.222;5.688;2024-01-11T13:12:26;12.90;;;6.90;;
14770;SDS011;7477;45.222;5.688;2024-01-11T13:15:46;14.70;;;8.77;;
14770;SDS011;7477;45.222;5.688;2024-01-11T13:19:05;14.10;;;8.15;;
14770;SDS011;7477;45.222;5.688;2024-01-11T13:22:24;12.65;;;7.95;;
14770;SDS011;7477;45.222;5.688;2024-01-11T13:25:44;14.50;;;8.35;;
14770;SDS011;7477;45.222;5.688;2024-01-11T13:29:04;17.92;;;10.82;;
14770;SDS011;7477;45.222;5.688;2024-01-11T13:32:24;14.02;;;8.20;;
14770;SDS011;7477;45.222;5.688;2024-01-11T13:35:44;14.10;;;8.98;;
14770;SDS011;7477;45.222;5.688;2024-01-11T13:39:04;12.20;;;7.28;;
14770;SDS011;7477;45.222;5.688;2024-01-11T13:42:23;17.42;;;7.10;;
14770;SDS011;7477;45.222;5.688;2024-01-11T13:45:45;12.50;;;7.00;;
14770;SDS011;7477;45.222;5.688;2024-01-11T13:49:04;12.73;;;6.53;;
14770;SDS011;7477;45.222;5.688;2024-01-11T13:52:23;14.00;;;7.20;;
14770;SDS011;7477;45.222;5.688;2024-01-11T13:55:43;16.55;;;8.70;;
14770;SDS011;7477;45.222;5.688;2024-01-11T13:59:02;14.18;;;8.93;;
14770;SDS011;7477;45.222;5.688;2024-01-11T14:02:22;13.77;;;7.78;;
14770;SDS011;7477;45.222;5.688;2024-01-11T14:05:41;14.77;;;8.52;;
14770;SDS011;7477;45.222;5.688;2024-01-11T14:09:00;15.13;;;7.10;;
14770;SDS011;7477;45.222;5.688;2024-01-11T14:12:21;15.38;;;7.30;;
14770;SDS011;7477;45.222;5.688;2024-01-11T14:15:40;11.82;;;6.40;;
14770;SDS011;7477;45.222;5.688;2024-01-11T14:19:00;9.77;;;6.53;;
14770;SDS011;7477;45.222;5.688;2024-01-11T14:22:20;11.18;;;8.05;;
14770;SDS011;7477;45.222;5.688;2024-01-11T14:25:39;15.85;;;8.13;;
14770;SDS011;7477;45.222;5.688;2024-01-11T14:28:59;14.93;;;7.60;;
14770;SDS011;7477;45.222;5.688;2024-01-11T14:32:19;13.85;;;7.63;;
14770;SDS011;7477;45.222;5.688;2024-01-11T14:35:39;13.80;;;6.07;;
14770;SDS011;7477;45.222;5.688;2024-01-11T14:38:58;13.82;;;6.93;;
14770;SDS011;7477;45.222;5.688;2024-01-11T14:42:17;10.32;;;6.95;;
14770;SDS011;7477;45.222;5.688;2024-01-11T14:45:36;13.23;;;7.93;;
14770;SDS011;7477;45.222;5.688;2024-01-11T14:48:56;13.50;;;7.13;;
14770;SDS011;7477;45.222;5.688;2024-01-11T14:52:16;15.25;;;7.00;;
14770;SDS011;7477;45.222;5.688;2024-01-11T14:55:37;24.25;;;10.50;;
14770;SDS011;7477;45.222;5.688;2024-01-11T14:58:56;16.30;;;8.48;;
14770;SDS011;7477;45.222;5.688;2024-01-11T15:02:15;13.90;;;7.15;;
14770;SDS011;7477;45.222;5.688;2024-01-11T15:05:34;18.60;;;9.98;;
14770;SDS011;7477;45.222;5.688;2024-01-11T15:08:55;23.23;;;11.10;;
14770;SDS011;7477;45.222;5.688;2024-01-11T15:12:14;13.45;;;7.63;;
14770;SDS011;7477;45.222;5.688;2024-01-11T15:15:34;15.65;;;8.00;;
14770;SDS011;7477;45.222;5.688;2024-01-11T15:18:53;20.45;;;10.32;;
14770;SDS011;7477;45.222;5.688;2024-01-11T15:22:12;19.15;;;9.18;;
14770;SDS011;7477;45.222;5.688;2024-01-11T15:25:32;13.95;;;7.68;;
14770;SDS011;7477;45.222;5.688;2024-01-11T15:28:51;14.43;;;8.77;;
14770;SDS011;7477;45.222;5.688;2024-01-11T15:32:10;13.48;;;8.07;;
14770;SDS011;7477;45.222;5.688;2024-01-11T15:35:29;16.07;;;8.23;;
14770;SDS011;7477;45.222;5.688;2024-01-11T15:38:48;18.20;;;8.73;;
14770;SDS011;7477;45.222;5.688;2024-01-11T15:42:08;15.23;;;8.70;;
14770;SDS011;7477;45.222;5.688;2024-01-11T15:45:27;16.92;;;9.25;;
14770;SDS011;7477;45.222;5.688;2024-01-11T15:48:46;14.85;;;7.70;;
14770;SDS011;7477;45.222;5.688;2024-01-11T15:52:05;15.55;;;8.65;;
14770;SDS011;7477;45.222;5.688;2024-01-11T15:55:25;14.63;;;8.00;;
14770;SDS011;7477;45.222;5.688;2024-01-11T15:58:44;13.47;;;8.23;;
14770;SDS011;7477;45.222;5.688;2024-01-11T16:02:03;20.27;;;8.87;;
14770;SDS011;7477;45.222;5.688;2024-01-11T16:05:23;18.07;;;9.43;;
14770;SDS011;7477;45.222;5.688;2024-01-11T16:08:42;14.15;;;7.93;;
14770;SDS011;7477;45.222;5.688;2024-01-11T16:12:02;16.90;;;8.23;;
14770;SDS011;7477;45.222;5.688;2024-01-11T16:15:22;15.00;;;8.52;;
14770;SDS011;7477;45.222;5.688;2024-01-11T16:18:41;13.00;;;7.37;;
14770;SDS011;7477;45.222;5.688;2024-01-11T16:22:00;14.37;;;7.73;;
14770;SDS011;7477;45.222;5.688;2024-01-11T16:25:19;13.32;;;7.50;;
14770;SDS011;7477;45.222;5.688;2024-01-11T16:28:38;15.53;;;8.63;;
14770;SDS011;7477;45.222;5.688;2024-01-11T16:31:58;13.60;;;7.20;;
14770;SDS011;7477;45.222;5.688;2024-01-11T16:35:17;14.60;;;8.13;;
14770;SDS011;7477;45.222;5.688;2024-01-11T16:38:39;17.30;;;8.00;;
14770;SDS011;7477;45.222;5.688;2024-01-11T16:41:59;14.32;;;7.90;;
14770;SDS011;7477;45.222;5.688;2024-01-11T16:45:18;17.55;;;8.73;;
14770;SDS011;7477;45.222;5.688;2024-01-11T16:48:37;14.88;;;7.55;;
14770;SDS011;7477;45.222;5.688;2024-01-11T16:51:56;18.45;;;9.80;;
14770;SDS011;7477;45.222;5.688;2024-01-11T16:55:16;19.08;;;10.40;;
14770;SDS011;7477;45.222;5.688;2024-01-11T16:58:35;14.47;;;7.63;;
14770;SDS011;7477;45.222;5.688;2024-01-11T17:01:54;18.02;;;8.55;;
14770;SDS011;7477;45.222;5.688;2024-01-11T17:05:13;12.20;;;7.80;;
14770;SDS011;7477;45.222;5.688;2024-01-11T17:08:32;16.98;;;8.43;;
14770;SDS011;7477;45.222;5.688;2024-01-11T17:11:51;16.63;;;10.00;;
14770;SDS011;7477;45.222;5.688;2024-01-11T17:15:10;16.63;;;9.63;;
14770;SDS011;7477;45.222;5.688;2024-01-11T17:18:30;15.43;;;8.93;;
14770;SDS011;7477;45.222;5.688;2024-01-11T17:21:50;15.05;;;9.02;;
14770;SDS011;7477;45.222;5.688;2024-01-11T17:25:09;18.50;;;9.45;;
14770;SDS011;7477;45.222;5.688;2024-01-11T17:28:28;21.25;;;10.38;;
14770;SDS011;7477;45.222;5.688;2024-01-11T17:31:47;21.10;;;11.40;;
14770;SDS011;7477;45.222;5.688;2024-01-11T17:35:06;19.88;;;9.43;;
14770;SDS011;7477;45.222;5.688;2024-01-11T17:38:26;18.17;;;8.75;;
14770;SDS011;7477;45.222;5.688;2024-01-11T17:41:45;19.55;;;10.30;;
14770;SDS011;7477;45.222;5.688;2024-01-11T17:45:05;20.42;;;10.15;;
14770;SDS011;7477;45.222;5.688;2024-01-11T17:48:25;20.25;;;9.82;;
14770;SDS011;7477;45.222;5.688;2024-01-11T17:51:44;23.17;;;11.57;;
14770;SDS011;7477;45.222;5.688;2024-01-11T17:55:05;19.23;;;10.60;;
14770;SDS011;7477;45.222;5.688;2024-01-11T17:58:24;21.95;;;9.88;;
14770;SDS011;7477;45.222;5.688;2024-01-11T18:01:44;20.67;;;10.90;;
14770;SDS011;7477;45.222;5.688;2024-01-11T18:05:04;14.20;;;9.70;;
14770;SDS011;7477;45.222;5.688;2024-01-11T18:08:24;18.52;;;10.55;;
14770;SDS011;7477;45.222;5.688;2024-01-11T18:11:43;17.88;;;9.05;;
14770;SDS011;7477;45.222;5.688;2024-01-11T18:15:03;15.57;;;9.38;;
14770;SDS011;7477;45.222;5.688;2024-01-11T18:18:23;20.13;;;8.77;;
14770;SDS011;7477;45.222;5.688;2024-01-11T18:21:42;18.95;;;8.45;;
14770;SDS011;7477;45.222;5.688;2024-01-11T18:25:01;16.85;;;9.57;;
14770;SDS011;7477;45.222;5.688;2024-01-11T18:28:21;16.70;;;9.50;;
14770;SDS011;7477;45.222;5.688;2024-01-11T18:31:40;14.77;;;8.57;;
14770;SDS011;7477;45.222;5.688;2024-01-11T18:34:59;13.35;;;8.35;;
14770;SDS011;7477;45.222;5.688;2024-01-11T18:38:18;13.65;;;8.05;;
14770;SDS011;7477;45.222;5.688;2024-01-11T18:41:40;14.65;;;8.35;;
14770;SDS011;7477;45.222;5.688;2024-01-11T18:44:59;12.80;;;7.85;;
14770;SDS011;7477;45.222;5.688;2024-01-11T18:48:18;19.57;;;9.80;;
14770;SDS011;7477;45.222;5.688;2024-01-11T18:51:40;18.90;;;8.77;;
14770;SDS011;7477;45.222;5.688;2024-01-11T18:55:00;18.57;;;9.70;;
14770;SDS011;7477;45.222;5.688;2024-01-11T18:58:20;13.27;;;7.73;;
14770;SDS011;7477;45.222;5.688;2024-01-11T19:01:40;17.17;;;9.17;;
14770;SDS011;7477;45.222;5.688;2024-01-11T19:05:05;13.57;;;7.77;;
14770;SDS011;7477;45.222;5.688;2024-01-11T19:08:25;20.40;;;9.98;;
14770;SDS011;7477;45.222;5.688;2024-01-11T19:11:46;19.85;;;8.57;;
14770;SDS011;7477;45.222;5.688;2024-01-11T19:15:09;16.52;;;9.52;;
14770;SDS011;7477;45.222;5.688;2024-01-11T19:18:28;15.23;;;8.63;;
14770;SDS011;7477;45.222;5.688;2024-01-11T19:21:47;13.00;;;8.23;;
14770;SDS011;7477;45.222;5.688;2024-01-11T19:25:07;16.52;;;9.30;;
14770;SDS011;7477;45.222;5.688;2024-01-11T19:28:27;19.07;;;10.93;;
14770;SDS011;7477;45.222;5.688;2024-01-11T19:31:46;14.27;;;8.40;;
14770;SDS011;7477;45.222;5.688;2024-01-11T19:35:06;20.42;;;10.98;;
14770;SDS011;7477;45.222;5.688;2024-01-11T19:38:26;16.65;;;9.50;;
14770;SDS011;7477;45.222;5.688;2024-01-11T19:41:45;26.77;;;14.47;;
14770;SDS011;7477;45.222;5.688;2024-01-11T19:45:04;23.98;;;13.70;;
14770;SDS011;7477;45.222;5.688;2024-01-11T19:48:24;31.15;;;18.20;;
14770;SDS011;7477;45.222;5.688;2024-01-11T19:51:43;19.95;;;11.85;;
14770;SDS011;7477;45.222;5.688;2024-01-11T19:55:03;19.92;;;10.77;;